createdAt,value
2022-08-14T00:00:10.708Z,100954.78
2022-08-14T00:02:59.800Z,100956.06
2022-08-14T00:05:40.110Z,100952.34
2022-08-14T00:08:44.333Z,100957.34
2022-08-14T00:11:26.623Z,100959.81
2022-08-14T00:14:17.117Z,100960.25
2022-08-14T00:16:57.784Z,100965.47
2022-08-14T00:19:40.711Z,100969.63
2022-08-14T00:22:44.010Z,100965.03
2022-08-14T00:25:21.237Z,100958.59
2022-08-14T00:28:00.866Z,100962.53
2022-08-14T00:30:48.740Z,100961.31
2022-08-14T00:33:50.893Z,100957.34
2022-08-14T00:36:36.866Z,100953.00
2022-08-14T00:39:20.377Z,100950.28
2022-08-14T00:41:59.974Z,100948.44
2022-08-14T00:44:45.345Z,100951.97
2022-08-14T00:47:26.974Z,100946.34
2022-08-14T00:50:17.673Z,100941.19
2022-08-14T00:52:57.440Z,100951.97
2022-08-14T00:55:41.371Z,100938.69
2022-08-14T00:58:34.206Z,100937.84
2022-08-14T01:01:16.664Z,100936.41
2022-08-14T01:03:58.812Z,100938.69
2022-08-14T01:06:38.581Z,100942.03
2022-08-14T01:09:22.760Z,100934.31
2022-08-14T01:12:08.748Z,100925.00
2022-08-14T01:14:58.362Z,100919.59
2022-08-14T01:17:54.617Z,100915.44
2022-08-14T01:20:52.897Z,100911.72
2022-08-14T01:23:46.859Z,100908.00
2022-08-14T01:27:07.033Z,100911.09
2022-08-14T01:30:00.803Z,100917.53
2022-08-14T01:32:52.990Z,100910.50
2022-08-14T01:36:05.201Z,100904.44
2022-08-14T01:39:40.498Z,100900.50
2022-08-14T01:42:36.045Z,100896.38
2022-08-14T01:45:40.239Z,100897.59
2022-08-14T01:48:23.240Z,100899.28
2022-08-14T01:51:18.980Z,100894.91
2022-08-14T01:54:05.342Z,100893.06
2022-08-14T01:56:44.978Z,100882.66
2022-08-14T01:59:37.879Z,100886.78
2022-08-14T02:02:23.221Z,100894.25
2022-08-14T02:05:03.741Z,100880.75
2022-08-14T02:07:55.729Z,100873.50
2022-08-14T02:11:05.906Z,100874.34
2022-08-14T02:13:47.074Z,100866.03
2022-08-14T02:16:33.929Z,100860.88
2022-08-14T02:19:32.197Z,100867.28
2022-08-14T02:22:13.293Z,100866.03
2022-08-14T02:25:35.809Z,100859.81
2022-08-14T02:28:22.505Z,100853.59
2022-08-14T02:31:43.416Z,100850.06
2022-08-14T02:34:29.186Z,100851.09
2022-08-14T02:37:12.933Z,100850.28
2022-08-14T02:40:02.595Z,100851.94
2022-08-14T02:42:54.296Z,100849.44
2022-08-14T02:45:38.361Z,100862.66
2022-08-14T02:49:05.627Z,100848.78
2022-08-14T02:51:31.138Z,100844.44
2022-08-14T02:54:13.052Z,100831.38
2022-08-14T02:57:15.931Z,100829.94
2022-08-14T02:59:53.551Z,100835.94
2022-08-14T03:02:56.241Z,100836.16
2022-08-14T03:05:45.615Z,100842.38
2022-08-14T03:08:32.076Z,100837.19
2022-08-14T03:11:13.429Z,100834.88
2022-08-14T03:13:56.135Z,100833.00
2022-08-14T03:16:35.777Z,100829.88
2022-08-14T03:19:17.846Z,100829.06
2022-08-14T03:21:59.499Z,100824.50
2022-08-14T03:24:50.300Z,100823.25
2022-08-14T03:27:48.273Z,100825.94
2022-08-14T03:30:40.919Z,100818.69
2022-08-14T03:33:20.548Z,100815.59
2022-08-14T03:37:28.656Z,100821.56
2022-08-14T03:39:14.913Z,100809.34
2022-08-14T03:42:02.064Z,100806.03
2022-08-14T03:45:18.801Z,100808.09
2022-08-14T03:47:46.669Z,100809.13
2022-08-14T03:50:38.288Z,100797.44
2022-08-14T03:53:20.407Z,100798.53
2022-08-14T03:56:00.807Z,100797.91
2022-08-14T03:58:45.241Z,100793.34
2022-08-14T04:01:53.912Z,100788.13
2022-08-14T04:04:46.027Z,100782.53
2022-08-14T04:08:08.190Z,100779.63
2022-08-14T04:10:50.833Z,100791.81
2022-08-14T04:13:34.288Z,100784.13
2022-08-14T04:16:17.933Z,100784.13
2022-08-14T04:19:04.605Z,100786.19
2022-08-14T04:22:02.521Z,100782.88
2022-08-14T04:24:44.762Z,100776.69
2022-08-14T04:27:32.017Z,100779.16
2022-08-14T04:30:42.497Z,100782.25
2022-08-14T04:33:24.598Z,100778.97
2022-08-14T04:36:07.083Z,100773.16
2022-08-14T04:39:19.076Z,100768.19
2022-08-14T04:42:17.470Z,100761.16
2022-08-14T04:45:00.938Z,100759.28
2022-08-14T04:47:58.154Z,100758.41
2022-08-14T04:50:44.544Z,100761.97
2022-08-14T04:54:07.709Z,100749.16
2022-08-14T04:56:47.420Z,100752.28
2022-08-14T04:59:30.101Z,100744.03
2022-08-14T05:02:10.350Z,100741.97
2022-08-14T05:04:57.012Z,100742.16
2022-08-14T05:07:53.971Z,100740.94
2022-08-14T05:10:43.597Z,100742.59
2022-08-14T05:13:30.674Z,100740.72
2022-08-14T05:26:44.500Z,100727.13
2022-08-14T05:29:28.319Z,100730.44
2022-08-14T05:32:09.471Z,100732.53
2022-08-14T05:34:49.270Z,100720.94
2022-08-14T05:37:31.887Z,100721.75
2022-08-14T05:40:14.386Z,100709.97
2022-08-14T05:42:58.112Z,100708.09
2022-08-14T05:45:38.430Z,100705.22
2022-08-14T05:48:32.720Z,100702.09
2022-08-14T05:51:13.900Z,100703.09
2022-08-14T05:54:00.245Z,100699.59
2022-08-14T05:56:48.144Z,100694.59
2022-08-14T05:59:36.691Z,100710.13
2022-08-14T06:02:22.191Z,100700.34
2022-08-14T06:05:02.546Z,100704.63
2022-08-14T06:07:43.001Z,100700.22
2022-08-14T06:10:28.187Z,100701.81
2022-08-14T06:13:12.368Z,100687.03
2022-08-14T06:15:51.710Z,100692.75
2022-08-14T06:18:33.783Z,100695.53
2022-08-14T06:21:13.722Z,100703.94
2022-08-14T06:23:58.720Z,100695.34
2022-08-14T06:26:42.329Z,100698.16
2022-08-14T06:29:32.088Z,100697.25
2022-08-14T06:32:37.549Z,100700.81
2022-08-14T06:35:18.607Z,100699.78
2022-08-14T06:38:04.476Z,100700.84
2022-08-14T06:40:46.404Z,100705.28
2022-08-14T06:43:36.714Z,100701.75
2022-08-14T06:46:23.273Z,100710.78
2022-08-14T06:49:14.566Z,100709.28
2022-08-14T06:51:54.903Z,100705.56
2022-08-14T06:54:37.522Z,100705.38
2022-08-14T06:57:16.537Z,100711.25
2022-08-14T06:59:55.949Z,100714.78
2022-08-14T07:02:53.344Z,100712.34
2022-08-14T07:05:58.528Z,100712.81
2022-08-14T07:08:40.709Z,100703.50
2022-08-14T07:11:22.669Z,100701.91
2022-08-14T07:14:04.982Z,100707.19
2022-08-14T07:16:46.089Z,100701.75
2022-08-14T07:19:26.862Z,100699.56
2022-08-14T07:22:17.673Z,100701.63
2022-08-14T07:25:12.385Z,100711.13
2022-08-14T07:28:20.901Z,100705.41
2022-08-14T07:31:04.607Z,100707.41
2022-08-14T07:33:50.608Z,100708.53
2022-08-14T07:36:30.632Z,100708.53
2022-08-14T07:39:13.394Z,100709.75
2022-08-14T07:41:52.693Z,100714.84
2022-08-14T07:44:45.733Z,100711.88
2022-08-14T07:47:24.883Z,100714.53
2022-08-14T07:50:12.699Z,100712.88
2022-08-14T07:53:01.643Z,100731.06
2022-08-14T07:55:45.245Z,100722.06
2022-08-14T07:58:34.009Z,100727.91
2022-08-14T08:01:19.804Z,100726.00
2022-08-14T08:04:01.345Z,100724.53
2022-08-14T08:06:54.081Z,100725.09
2022-08-14T08:09:57.919Z,100720.84
2022-08-14T08:13:06.076Z,100719.22
2022-08-14T08:15:53.767Z,100727.53
2022-08-14T08:18:36.552Z,100729.16
2022-08-14T08:21:22.462Z,100734.19
2022-08-14T08:24:10.420Z,100726.56
2022-08-14T08:26:50.627Z,100717.28
2022-08-14T08:29:31.418Z,100730.66
2022-08-14T08:32:11.276Z,100713.44
2022-08-14T08:34:54.229Z,100731.25
2022-08-14T08:37:40.229Z,100727.56
2022-08-14T08:40:42.137Z,100725.94
2022-08-14T08:43:25.352Z,100721.47
2022-08-14T08:46:21.243Z,100716.13
2022-08-14T08:49:24.197Z,100716.72
2022-08-14T08:52:51.184Z,100706.22
2022-08-14T08:55:34.732Z,100693.88
2022-08-14T08:58:24.827Z,100700.84
2022-08-14T09:01:05.021Z,100692.91
2022-08-14T09:03:44.814Z,100695.50
2022-08-14T09:07:09.910Z,100693.06
2022-08-14T09:09:26.335Z,100697.53
2022-08-14T09:12:18.946Z,100683.72
2022-08-14T09:15:12.899Z,100678.13
2022-08-14T09:18:04.909Z,100671.41
2022-08-14T09:20:52.989Z,100676.03
2022-08-14T09:24:25.955Z,100663.72
2022-08-14T09:26:38.285Z,100669.91
2022-08-14T09:29:22.853Z,100661.88
2022-08-14T09:32:10.204Z,100663.41
2022-08-14T09:35:14.718Z,100659.09
2022-08-14T09:38:27.475Z,100663.72
2022-08-14T09:42:17.776Z,100637.16
2022-08-14T09:45:11.521Z,100638.56
2022-08-14T09:47:53.521Z,100632.91
2022-08-14T09:50:47.942Z,100629.72
2022-08-14T09:54:19.355Z,100620.97
2022-08-14T09:56:56.943Z,100623.66
2022-08-14T09:59:46.125Z,100617.09
2022-08-14T10:03:05.137Z,100610.09
2022-08-14T10:05:50.600Z,100619.47
2022-08-14T10:08:52.929Z,100613.44
2022-08-14T10:11:37.970Z,100603.06
2022-08-14T10:14:53.477Z,100599.34
2022-08-14T10:17:39.794Z,100596.63
2022-08-14T10:20:39.617Z,100599.13
2022-08-14T10:23:23.446Z,100596.75
2022-08-14T10:26:07.190Z,100591.91
2022-08-14T10:29:17.824Z,100598.59
2022-08-14T10:31:59.046Z,100589.25
2022-08-14T10:35:13.296Z,100575.44
2022-08-14T10:37:54.317Z,100575.69
2022-08-14T10:40:59.486Z,100574.81
2022-08-14T10:44:09.109Z,100574.81
2022-08-14T10:47:40.289Z,100574.03
2022-08-14T10:50:14.834Z,100562.94
2022-08-14T10:53:05.541Z,100567.78
2022-08-14T10:55:48.223Z,100563.66
2022-08-14T10:58:50.420Z,100559.81
2022-08-14T11:01:45.366Z,100563.50
2022-08-14T11:05:04.844Z,100550.91
2022-08-14T11:08:09.012Z,100549.09
2022-08-14T11:12:34.245Z,100528.56
2022-08-14T11:15:26.791Z,100540.91
2022-08-14T11:18:30.306Z,100532.81
2022-08-14T11:22:52.857Z,100525.25
2022-08-14T11:25:44.431Z,100525.66
2022-08-14T11:28:48.297Z,100524.50
2022-08-14T11:31:38.501Z,100519.84
2022-08-14T11:34:32.285Z,100516.09
2022-08-14T11:37:40.449Z,100507.41
2022-08-14T11:40:28.467Z,100508.56
2022-08-14T11:43:11.992Z,100507.34
2022-08-14T11:45:54.223Z,100501.31
2022-08-14T11:49:03.196Z,100493.13
2022-08-14T11:51:54.186Z,100486.38
2022-08-14T11:54:35.463Z,100502.63
2022-08-14T11:57:19.854Z,100482.06
2022-08-14T12:00:19.552Z,100482.44
2022-08-14T12:03:04.301Z,100485.50
2022-08-14T12:05:44.919Z,100484.38
2022-08-14T12:08:34.709Z,100494.72
2022-08-14T12:11:17.946Z,100494.69
2022-08-14T12:14:08.407Z,100483.94
2022-08-14T12:17:12.187Z,100470.47
2022-08-14T12:19:56.547Z,100468.63
2022-08-14T12:22:37.580Z,100460.56
2022-08-14T12:25:24.702Z,100459.84
2022-08-14T12:28:27.435Z,100452.19
2022-08-14T12:31:17.535Z,100451.16
2022-08-14T12:34:02.541Z,100442.59
2022-08-14T12:36:51.209Z,100445.31
2022-08-14T12:39:30.422Z,100454.78
2022-08-14T12:42:38.689Z,100432.25
2022-08-14T12:45:31.097Z,100424.34
2022-08-14T12:48:21.493Z,100421.16
2022-08-14T12:51:18.308Z,100416.72
2022-08-14T12:54:26.456Z,100411.53
2022-08-14T12:57:10.307Z,100386.38
2022-08-14T13:00:22.869Z,100409.88
2022-08-14T13:03:05.340Z,100402.88
2022-08-14T13:05:49.687Z,100392.38
2022-08-14T13:08:34.477Z,100388.13
2022-08-14T13:11:18.399Z,100391.84
2022-08-14T13:14:04.904Z,100387.72
2022-08-14T13:16:50.544Z,100372.78
2022-08-14T13:19:30.955Z,100364.09
2022-08-14T13:22:29.152Z,100359.19
2022-08-14T13:25:16.706Z,100364.22
2022-08-14T13:27:59.356Z,100352.28
2022-08-14T13:30:41.467Z,100361.94
2022-08-14T13:33:21.901Z,100352.53
2022-08-14T13:36:04.313Z,100355.47
2022-08-14T13:38:45.544Z,100349.19
2022-08-14T13:41:34.539Z,100344.38
2022-08-14T13:44:16.641Z,100343.31
2022-08-14T13:47:06.931Z,100344.94
2022-08-14T13:49:57.505Z,100328.91
2022-08-14T13:52:52.683Z,100318.81
2022-08-14T13:55:36.343Z,100319.50
2022-08-14T13:58:33.640Z,100309.78
2022-08-14T14:01:16.711Z,100307.16
2022-08-14T14:03:59.217Z,100304.78
2022-08-14T14:06:44.675Z,100294.47
2022-08-14T14:09:32.577Z,100294.47
2022-08-14T14:12:38.079Z,100313.03
2022-08-14T14:15:23.018Z,100301.94
2022-08-14T14:18:29.420Z,100298.88
2022-08-14T14:21:14.995Z,100293.97
2022-08-14T14:23:56.242Z,100296.81
2022-08-14T14:26:38.790Z,100292.91
2022-08-14T14:29:25.926Z,100281.31
2022-08-14T14:32:07.938Z,100288.06
2022-08-14T14:34:53.300Z,100279.91
2022-08-14T14:37:32.751Z,100286.41
2022-08-14T14:40:54.149Z,100291.09
2022-08-14T14:43:17.455Z,100282.44
2022-08-14T14:45:58.345Z,100283.19
2022-08-14T14:48:44.205Z,100289.03
2022-08-14T14:51:26.858Z,100279.78
2022-08-14T14:54:09.415Z,100261.78
2022-08-14T14:56:56.137Z,100276.84
2022-08-14T14:59:35.795Z,100260.66
2022-08-14T15:02:30.541Z,100278.47
2022-08-14T15:05:13.075Z,100271.34
2022-08-14T15:07:53.849Z,100270.13
2022-08-14T15:10:39.846Z,100261.28
2022-08-14T15:13:20.527Z,100255.03
2022-08-14T15:16:01.935Z,100247.31
2022-08-14T15:18:46.826Z,100244.28
2022-08-14T15:21:29.499Z,100242.44
2022-08-14T15:24:16.463Z,100235.09
2022-08-14T15:27:06.529Z,100231.94
2022-08-14T15:29:48.834Z,100237.84
2022-08-14T15:32:29.500Z,100229.69
2022-08-14T15:35:09.806Z,100228.88
2022-08-14T15:37:55.940Z,100231.53
2022-08-14T15:40:41.011Z,100224.72
2022-08-14T15:43:27.222Z,100223.31
2022-08-14T15:46:41.197Z,100223.91
2022-08-14T15:49:12.460Z,100230.31
2022-08-14T15:51:55.615Z,100225.28
2022-08-14T15:54:36.018Z,100229.75
2022-08-14T15:57:21.073Z,100221.47
2022-08-14T16:00:40.173Z,100219.03
2022-08-14T16:03:27.180Z,100222.13
2022-08-14T16:06:17.432Z,100209.84
2022-08-14T16:09:03.474Z,100209.06
2022-08-14T16:11:53.920Z,100206.22
2022-08-14T16:14:37.119Z,100198.63
2022-08-14T16:17:22.535Z,100198.38
2022-08-14T16:20:08.221Z,100198.53
2022-08-14T16:22:58.180Z,100193.16
2022-08-14T16:25:40.489Z,100190.06
2022-08-14T16:28:27.535Z,100183.03
2022-08-14T16:31:10.707Z,100179.34
2022-08-14T16:33:58.679Z,100174.31
2022-08-14T16:37:01.487Z,100165.44
2022-08-14T16:39:42.138Z,100163.38
2022-08-14T16:43:02.790Z,100160.41
2022-08-14T16:45:31.662Z,100158.06
2022-08-14T16:48:54.896Z,100161.00
2022-08-14T16:51:36.293Z,100156.44
2022-08-14T16:54:20.856Z,100149.00
2022-08-14T16:57:21.141Z,100152.31
2022-08-14T17:00:07.423Z,100149.63
2022-08-14T17:03:08.392Z,100154.91
2022-08-14T17:05:52.560Z,100142.91
2022-08-14T17:08:46.471Z,100141.91
2022-08-14T17:11:27.737Z,100139.00
2022-08-14T17:14:10.554Z,100150.56
2022-08-14T17:16:56.017Z,100135.50
2022-08-14T17:19:41.229Z,100137.97
2022-08-14T17:22:21.027Z,100137.97
2022-08-14T17:25:03.963Z,100131.22
2022-08-14T17:27:45.079Z,100131.56
2022-08-14T17:30:48.857Z,100132.28
2022-08-14T17:33:33.430Z,100129.47
2022-08-14T17:36:25.001Z,100132.78
2022-08-14T17:39:07.258Z,100122.03
2022-08-14T17:42:02.037Z,100123.94
2022-08-14T17:44:45.891Z,100127.28
2022-08-14T17:47:27.661Z,100129.84
2022-08-14T17:50:59.813Z,100125.41
2022-08-14T17:53:16.805Z,100123.56
2022-08-14T17:56:04.661Z,100122.22
2022-08-14T17:58:45.768Z,100124.28
2022-08-14T18:01:29.626Z,100136.03
2022-08-14T18:04:28.189Z,100125.94
2022-08-14T18:07:16.276Z,100124.66
2022-08-14T18:10:00.070Z,100119.19
2022-08-14T18:13:02.381Z,100124.06
2022-08-14T18:15:44.292Z,100131.81
2022-08-14T18:18:32.140Z,100136.25
2022-08-14T18:21:24.338Z,100122.88
2022-08-14T18:24:39.935Z,100130.56
2022-08-14T18:27:41.643Z,100136.66
2022-08-14T18:30:31.863Z,100130.91
2022-08-14T18:33:22.912Z,100133.97
2022-08-14T18:36:47.571Z,100124.94
2022-08-14T18:39:24.189Z,100137.59
2022-08-14T18:42:40.758Z,100130.53
2022-08-14T18:45:29.346Z,100125.69
2022-08-14T18:48:28.677Z,100129.53
2022-08-14T18:51:46.155Z,100133.16
2022-08-14T18:54:33.123Z,100134.28
2022-08-14T18:57:20.141Z,100140.91
2022-08-14T19:00:00.530Z,100140.66
2022-08-14T19:02:43.872Z,100141.25
2022-08-14T19:08:39.406Z,100136.97
2022-08-14T19:11:50.420Z,100132.66
2022-08-14T19:14:47.916Z,100145.78
2022-08-14T19:18:14.301Z,100142.78
2022-08-14T19:21:00.925Z,100145.25
2022-08-14T19:23:59.498Z,100148.25
2022-08-14T19:26:54.654Z,100145.56
2022-08-14T19:29:37.724Z,100143.91
2022-08-14T19:32:39.434Z,100140.09
2022-08-14T19:35:49.522Z,100139.28
2022-08-14T19:38:52.026Z,100147.50
2022-08-14T19:41:37.973Z,100145.03
2022-08-14T19:44:20.617Z,100137.41
2022-08-14T19:47:13.670Z,100139.03
2022-08-14T19:50:30.354Z,100137.13
2022-08-14T19:53:11.389Z,100133.88
2022-08-14T19:55:59.371Z,100138.78
2022-08-14T19:58:54.546Z,100141.50
2022-08-14T20:01:38.289Z,100136.06
2022-08-14T20:04:47.703Z,100143.13
2022-08-14T20:09:05.688Z,100143.69
2022-08-14T20:11:04.106Z,100138.75
2022-08-14T20:13:40.899Z,100135.47
2022-08-14T20:16:31.950Z,100136.56
2022-08-14T20:19:16.040Z,100140.66
2022-08-14T20:22:34.963Z,100130.03
2022-08-14T20:25:15.172Z,100132.19
2022-08-14T20:27:59.271Z,100135.47
2022-08-14T20:30:44.070Z,100134.38
2022-08-14T20:34:08.009Z,100135.75
2022-08-14T20:37:42.244Z,100131.94
2022-08-14T20:40:27.638Z,100139.25
2022-08-14T20:43:35.631Z,100129.19
2022-08-14T20:46:29.969Z,100125.31
2022-08-14T20:49:34.413Z,100130.78
2022-08-14T20:52:19.308Z,100125.56
2022-08-14T20:55:01.777Z,100125.84
2022-08-14T20:58:09.568Z,100127.72
2022-08-14T21:00:52.424Z,100117.06
2022-08-14T21:03:57.986Z,100124.41
2022-08-14T21:07:22.655Z,100115.13
2022-08-14T21:10:05.421Z,100117.00
2022-08-14T21:13:25.603Z,100117.25
2022-08-14T21:15:57.181Z,100109.34
2022-08-14T21:18:54.837Z,100109.53
2022-08-14T21:21:42.461Z,100106.25
2022-08-14T21:24:39.571Z,100107.88
2022-08-14T21:27:27.388Z,100110.00
2022-08-14T21:30:20.856Z,100098.00
2022-08-14T21:33:02.311Z,100095.56
2022-08-14T21:35:45.507Z,100096.03
2022-08-14T21:38:46.496Z,100100.06
2022-08-14T21:41:42.309Z,100097.88
2022-08-14T21:44:42.937Z,100097.00
2022-08-14T21:47:24.949Z,100102.16
2022-08-14T21:50:59.982Z,100093.69
2022-08-14T21:53:27.440Z,100087.41
2022-08-14T21:56:12.154Z,100090.06
2022-08-14T21:58:56.653Z,100093.28
2022-08-14T22:02:00.628Z,100090.00
2022-08-14T22:04:41.435Z,100093.78
2022-08-14T22:07:21.143Z,100088.84
2022-08-14T22:10:10.980Z,100091.00
2022-08-14T22:13:00.734Z,100085.28
2022-08-14T22:15:43.848Z,100089.91
2022-08-14T22:18:32.208Z,100085.00
2022-08-14T22:21:16.710Z,100081.72
2022-08-14T22:24:37.733Z,100077.63
2022-08-14T22:27:21.326Z,100080.34
2022-08-14T22:30:24.000Z,100078.16
2022-08-14T22:33:05.910Z,100076.47
2022-08-14T22:35:56.386Z,100079.47
2022-08-14T22:38:50.652Z,100076.19
2022-08-14T22:41:43.036Z,100078.34
2022-08-14T22:44:28.545Z,100077.22
2022-08-14T22:47:09.795Z,100066.88
2022-08-14T22:50:29.441Z,100071.75
2022-08-14T22:52:51.385Z,100060.00
2022-08-14T22:55:31.298Z,100056.75
2022-08-14T22:58:17.608Z,100062.69
2022-08-14T23:01:01.220Z,100052.34
2022-08-14T23:03:43.247Z,100059.34
2022-08-14T23:07:02.850Z,100054.41
2022-08-14T23:09:35.100Z,100051.09
2022-08-14T23:12:27.586Z,100047.00
2022-08-14T23:15:10.000Z,100052.38
2022-08-14T23:17:50.580Z,100049.59
2022-08-14T23:20:31.844Z,100041.16
2022-08-14T23:23:22.280Z,100053.03
2022-08-14T23:26:48.303Z,100044.84
2022-08-14T23:29:07.611Z,100046.66
2022-08-14T23:31:52.055Z,100038.50
2022-08-14T23:34:38.309Z,100041.47
2022-08-14T23:37:30.844Z,100035.16
2022-08-14T23:40:26.562Z,100037.75
2022-08-14T23:43:14.572Z,100035.78
2022-08-14T23:45:57.943Z,100027.25
2022-08-14T23:48:40.277Z,100029.09
2022-08-14T23:51:28.275Z,100024.69
2022-08-14T23:54:47.330Z,100025.97
2022-08-14T23:57:19.599Z,100024.84
2022-08-14T23:59:59.017Z,100015.84
